sensor_id;sensor_type;location;lat;lon;timestamp;temperature;humidity
52034;DHT22;38045;52.988;6.536;2023-05-19T00:01:56;8.90;99.90
52034;DHT22;38045;52.988;6.536;2023-05-19T00:04:24;8.90;99.90
52034;DHT22;38045;52.988;6.536;2023-05-19T00:06:50;8.80;99.90
52034;DHT22;38045;52.988;6.536;2023-05-19T00:09:18;8.80;99.90
52034;DHT22;38045;52.988;6.536;2023-05-19T00:11:44;8.80;99.90
52034;DHT22;38045;52.988;6.536;2023-05-19T00:14:10;8.80;99.90
52034;DHT22;38045;52.988;6.536;2023-05-19T00:16:36;8.80;99.90
52034;DHT22;38045;52.988;6.536;2023-05-19T00:19:03;8.90;99.90
52034;DHT22;38045;52.988;6.536;2023-05-19T00:21:29;8.70;99.90
52034;DHT22;38045;52.988;6.536;2023-05-19T00:23:55;8.80;99.90
52034;DHT22;38045;52.988;6.536;2023-05-19T00:26:21;8.70;99.90
52034;DHT22;38045;52.988;6.536;2023-05-19T00:28:51;8.80;99.90
52034;DHT22;38045;52.988;6.536;2023-05-19T00:31:16;8.80;99.90
52034;DHT22;38045;52.988;6.536;2023-05-19T00:33:42;8.70;99.90
52034;DHT22;38045;52.988;6.536;2023-05-19T00:36:08;8.70;99.90
52034;DHT22;38045;52.988;6.536;2023-05-19T00:38:35;8.70;99.90
52034;DHT22;38045;52.988;6.536;2023-05-19T00:41:02;8.70;99.90
52034;DHT22;38045;52.988;6.536;2023-05-19T00:43:28;8.70;99.90
52034;DHT22;38045;52.988;6.536;2023-05-19T00:45:56;8.70;99.90
52034;DHT22;38045;52.988;6.536;2023-05-19T00:48:23;8.70;99.90
52034;DHT22;38045;52.988;6.536;2023-05-19T00:50:50;8.70;99.90
52034;DHT22;38045;52.988;6.536;2023-05-19T00:53:17;8.70;99.90
52034;DHT22;38045;52.988;6.536;2023-05-19T00:55:44;8.70;99.90
52034;DHT22;38045;52.988;6.536;2023-05-19T00:58:11;8.60;99.90
52034;DHT22;38045;52.988;6.536;2023-05-19T01:00:38;8.60;99.90
52034;DHT22;38045;52.988;6.536;2023-05-19T01:03:05;8.60;99.90
52034;DHT22;38045;52.988;6.536;2023-05-19T01:05:40;8.60;99.90
52034;DHT22;38045;52.988;6.536;2023-05-19T01:08:12;8.60;99.90
52034;DHT22;38045;52.988;6.536;2023-05-19T01:10:37;8.60;99.90
52034;DHT22;38045;52.988;6.536;2023-05-19T01:13:04;8.60;99.90
52034;DHT22;38045;52.988;6.536;2023-05-19T01:15:32;8.50;99.90
52034;DHT22;38045;52.988;6.536;2023-05-19T01:18:07;8.50;99.90
52034;DHT22;38045;52.988;6.536;2023-05-19T01:20:43;8.50;99.90
52034;DHT22;38045;52.988;6.536;2023-05-19T01:23:32;8.50;99.90
52034;DHT22;38045;52.988;6.536;2023-05-19T01:31:47;8.40;99.90
52034;DHT22;38045;52.988;6.536;2023-05-19T01:34:15;8.30;99.90
52034;DHT22;38045;52.988;6.536;2023-05-19T01:36:42;8.30;99.90
52034;DHT22;38045;52.988;6.536;2023-05-19T01:39:09;8.30;99.90
52034;DHT22;38045;52.988;6.536;2023-05-19T01:41:37;8.30;99.90
52034;DHT22;38045;52.988;6.536;2023-05-19T01:44:05;8.30;99.90
52034;DHT22;38045;52.988;6.536;2023-05-19T01:46:30;8.30;99.90
52034;DHT22;38045;52.988;6.536;2023-05-19T01:48:56;8.30;99.90
52034;DHT22;38045;52.988;6.536;2023-05-19T01:51:22;8.40;99.90
52034;DHT22;38045;52.988;6.536;2023-05-19T01:53:48;8.30;99.90
52034;DHT22;38045;52.988;6.536;2023-05-19T01:56:18;8.30;99.90
52034;DHT22;38045;52.988;6.536;2023-05-19T01:58:49;8.30;99.90
52034;DHT22;38045;52.988;6.536;2023-05-19T02:04:26;8.30;99.90
52034;DHT22;38045;52.988;6.536;2023-05-19T02:06:59;8.30;99.90
52034;DHT22;38045;52.988;6.536;2023-05-19T02:12:19;8.30;99.90
52034;DHT22;38045;52.988;6.536;2023-05-19T02:15:15;8.30;99.90
52034;DHT22;38045;52.988;6.536;2023-05-19T02:17:43;8.30;99.90
52034;DHT22;38045;52.988;6.536;2023-05-19T02:20:16;8.20;99.90
52034;DHT22;38045;52.988;6.536;2023-05-19T02:22:42;8.20;99.90
52034;DHT22;38045;52.988;6.536;2023-05-19T02:25:08;8.20;99.90
52034;DHT22;38045;52.988;6.536;2023-05-19T02:27:35;8.20;99.90
52034;DHT22;38045;52.988;6.536;2023-05-19T02:30:05;8.20;99.90
52034;DHT22;38045;52.988;6.536;2023-05-19T02:32:31;8.20;99.90
52034;DHT22;38045;52.988;6.536;2023-05-19T02:34:57;8.20;99.90
52034;DHT22;38045;52.988;6.536;2023-05-19T02:37:23;8.20;99.90
52034;DHT22;38045;52.988;6.536;2023-05-19T02:39:49;8.20;99.90
52034;DHT22;38045;52.988;6.536;2023-05-19T02:42:15;8.20;99.90
52034;DHT22;38045;52.988;6.536;2023-05-19T02:44:43;8.20;99.90
52034;DHT22;38045;52.988;6.536;2023-05-19T02:47:09;8.10;99.90
52034;DHT22;38045;52.988;6.536;2023-05-19T02:49:35;8.10;99.90
52034;DHT22;38045;52.988;6.536;2023-05-19T02:52:01;8.10;99.90
52034;DHT22;38045;52.988;6.536;2023-05-19T02:54:29;8.10;99.90
52034;DHT22;38045;52.988;6.536;2023-05-19T02:56:55;8.10;99.90
52034;DHT22;38045;52.988;6.536;2023-05-19T02:59:20;8.10;99.90
52034;DHT22;38045;52.988;6.536;2023-05-19T03:01:47;8.00;99.90
52034;DHT22;38045;52.988;6.536;2023-05-19T03:04:13;8.10;99.90
52034;DHT22;38045;52.988;6.536;2023-05-19T03:06:39;8.00;99.90
52034;DHT22;38045;52.988;6.536;2023-05-19T03:09:04;8.00;99.90
52034;DHT22;38045;52.988;6.536;2023-05-19T03:11:30;8.00;99.90
52034;DHT22;38045;52.988;6.536;2023-05-19T03:13:57;8.00;99.90
52034;DHT22;38045;52.988;6.536;2023-05-19T03:16:22;8.00;99.90
52034;DHT22;38045;52.988;6.536;2023-05-19T03:18:49;8.00;99.90
52034;DHT22;38045;52.988;6.536;2023-05-19T03:21:15;8.00;99.90
52034;DHT22;38045;52.988;6.536;2023-05-19T03:23:41;8.00;99.90
52034;DHT22;38045;52.988;6.536;2023-05-19T03:26:06;8.00;99.90
52034;DHT22;38045;52.988;6.536;2023-05-19T03:28:32;8.00;99.90
52034;DHT22;38045;52.988;6.536;2023-05-19T03:30:57;8.00;99.90
52034;DHT22;38045;52.988;6.536;2023-05-19T03:33:23;7.90;99.90
52034;DHT22;38045;52.988;6.536;2023-05-19T03:35:49;7.90;99.90
52034;DHT22;38045;52.988;6.536;2023-05-19T03:38:15;7.90;99.90
52034;DHT22;38045;52.988;6.536;2023-05-19T03:40:40;7.90;99.90
52034;DHT22;38045;52.988;6.536;2023-05-19T03:43:06;7.90;99.90
52034;DHT22;38045;52.988;6.536;2023-05-19T03:45:32;7.90;99.90
52034;DHT22;38045;52.988;6.536;2023-05-19T03:47:58;7.90;99.90
52034;DHT22;38045;52.988;6.536;2023-05-19T03:50:23;7.40;99.90
52034;DHT22;38045;52.988;6.536;2023-05-19T03:52:49;8.00;99.90
52034;DHT22;38045;52.988;6.536;2023-05-19T03:55:14;7.90;99.90
52034;DHT22;38045;52.988;6.536;2023-05-19T03:57:40;7.90;99.90
52034;DHT22;38045;52.988;6.536;2023-05-19T04:00:08;8.00;99.90
52034;DHT22;38045;52.988;6.536;2023-05-19T04:02:35;8.00;99.90
52034;DHT22;38045;52.988;6.536;2023-05-19T04:05:01;8.00;99.90
52034;DHT22;38045;52.988;6.536;2023-05-19T04:07:29;8.00;99.90
52034;DHT22;38045;52.988;6.536;2023-05-19T04:09:55;8.00;99.90
52034;DHT22;38045;52.988;6.536;2023-05-19T04:12:21;8.00;99.90
52034;DHT22;38045;52.988;6.536;2023-05-19T04:14:46;8.10;99.90
52034;DHT22;38045;52.988;6.536;2023-05-19T04:17:12;8.10;99.90
52034;DHT22;38045;52.988;6.536;2023-05-19T04:19:38;8.10;99.90
52034;DHT22;38045;52.988;6.536;2023-05-19T04:22:03;8.20;99.90
52034;DHT22;38045;52.988;6.536;2023-05-19T04:24:29;8.20;99.90
52034;DHT22;38045;52.988;6.536;2023-05-19T04:26:55;8.20;99.90
52034;DHT22;38045;52.988;6.536;2023-05-19T04:29:21;8.30;99.90
52034;DHT22;38045;52.988;6.536;2023-05-19T04:31:48;8.30;99.90
52034;DHT22;38045;52.988;6.536;2023-05-19T04:34:13;8.30;99.90
52034;DHT22;38045;52.988;6.536;2023-05-19T04:36:39;8.40;99.90
52034;DHT22;38045;52.988;6.536;2023-05-19T04:39:05;8.40;99.90
52034;DHT22;38045;52.988;6.536;2023-05-19T04:41:33;8.50;99.90
52034;DHT22;38045;52.988;6.536;2023-05-19T04:43:59;8.50;99.90
52034;DHT22;38045;52.988;6.536;2023-05-19T04:46:25;8.60;99.90
52034;DHT22;38045;52.988;6.536;2023-05-19T04:48:51;8.70;99.90
52034;DHT22;38045;52.988;6.536;2023-05-19T04:51:22;8.70;99.90
52034;DHT22;38045;52.988;6.536;2023-05-19T04:53:55;8.80;99.90
52034;DHT22;38045;52.988;6.536;2023-05-19T04:56:20;8.90;99.90
52034;DHT22;38045;52.988;6.536;2023-05-19T04:58:46;9.00;99.90
52034;DHT22;38045;52.988;6.536;2023-05-19T05:01:12;9.00;99.90
52034;DHT22;38045;52.988;6.536;2023-05-19T05:03:38;9.10;99.90
52034;DHT22;38045;52.988;6.536;2023-05-19T05:06:04;9.20;99.90
52034;DHT22;38045;52.988;6.536;2023-05-19T05:08:31;9.30;99.90
52034;DHT22;38045;52.988;6.536;2023-05-19T05:10:56;9.30;99.90
52034;DHT22;38045;52.988;6.536;2023-05-19T05:13:23;9.40;99.90
52034;DHT22;38045;52.988;6.536;2023-05-19T05:15:49;9.50;99.90
52034;DHT22;38045;52.988;6.536;2023-05-19T05:18:16;9.50;99.90
52034;DHT22;38045;52.988;6.536;2023-05-19T05:20:43;9.60;99.90
52034;DHT22;38045;52.988;6.536;2023-05-19T05:23:09;9.60;99.90
52034;DHT22;38045;52.988;6.536;2023-05-19T05:25:39;9.70;99.90
52034;DHT22;38045;52.988;6.536;2023-05-19T05:28:05;9.70;99.90
52034;DHT22;38045;52.988;6.536;2023-05-19T05:30:32;9.80;99.90
52034;DHT22;38045;52.988;6.536;2023-05-19T05:32:58;9.90;99.90
52034;DHT22;38045;52.988;6.536;2023-05-19T05:35:23;9.90;99.90
52034;DHT22;38045;52.988;6.536;2023-05-19T05:37:49;10.00;99.90
52034;DHT22;38045;52.988;6.536;2023-05-19T05:40:15;10.10;99.90
52034;DHT22;38045;52.988;6.536;2023-05-19T05:42:42;10.40;99.90
52034;DHT22;38045;52.988;6.536;2023-05-19T05:45:07;10.10;99.90
52034;DHT22;38045;52.988;6.536;2023-05-19T05:47:33;10.00;99.90
52034;DHT22;38045;52.988;6.536;2023-05-19T05:50:03;10.00;99.90
52034;DHT22;38045;52.988;6.536;2023-05-19T05:52:29;10.10;99.90
52034;DHT22;38045;52.988;6.536;2023-05-19T05:54:55;10.20;99.90
52034;DHT22;38045;52.988;6.536;2023-05-19T05:57:21;10.30;99.90
52034;DHT22;38045;52.988;6.536;2023-05-19T05:59:47;10.30;99.90
52034;DHT22;38045;52.988;6.536;2023-05-19T06:02:13;10.40;99.90
52034;DHT22;38045;52.988;6.536;2023-05-19T06:04:38;10.50;99.90
52034;DHT22;38045;52.988;6.536;2023-05-19T06:07:05;10.60;99.90
52034;DHT22;38045;52.988;6.536;2023-05-19T06:09:30;10.70;99.90
52034;DHT22;38045;52.988;6.536;2023-05-19T06:11:57;10.80;99.90
52034;DHT22;38045;52.988;6.536;2023-05-19T06:14:24;10.80;99.90
52034;DHT22;38045;52.988;6.536;2023-05-19T06:16:50;10.90;99.90
52034;DHT22;38045;52.988;6.536;2023-05-19T06:19:16;11.00;99.90
52034;DHT22;38045;52.988;6.536;2023-05-19T06:21:42;11.10;99.90
52034;DHT22;38045;52.988;6.536;2023-05-19T06:24:08;11.20;99.90
52034;DHT22;38045;52.988;6.536;2023-05-19T06:26:33;11.30;99.90
52034;DHT22;38045;52.988;6.536;2023-05-19T06:28:59;11.30;99.90
52034;DHT22;38045;52.988;6.536;2023-05-19T06:31:25;11.40;99.90
52034;DHT22;38045;52.988;6.536;2023-05-19T06:33:51;11.50;99.90
52034;DHT22;38045;52.988;6.536;2023-05-19T06:36:18;11.60;99.90
52034;DHT22;38045;52.988;6.536;2023-05-19T06:38:43;11.70;99.90
52034;DHT22;38045;52.988;6.536;2023-05-19T06:41:09;11.80;99.90
52034;DHT22;38045;52.988;6.536;2023-05-19T06:43:35;11.90;99.90
52034;DHT22;38045;52.988;6.536;2023-05-19T06:46:00;11.90;99.90
52034;DHT22;38045;52.988;6.536;2023-05-19T06:48:26;12.00;99.90
52034;DHT22;38045;52.988;6.536;2023-05-19T06:50:52;12.10;99.90
52034;DHT22;38045;52.988;6.536;2023-05-19T06:53:18;12.20;99.90
52034;DHT22;38045;52.988;6.536;2023-05-19T06:55:45;12.20;99.90
52034;DHT22;38045;52.988;6.536;2023-05-19T06:58:10;12.30;99.90
52034;DHT22;38045;52.988;6.536;2023-05-19T07:00:36;12.40;99.90
52034;DHT22;38045;52.988;6.536;2023-05-19T07:03:02;12.50;99.90
52034;DHT22;38045;52.988;6.536;2023-05-19T07:05:27;12.60;99.90
52034;DHT22;38045;52.988;6.536;2023-05-19T07:07:53;12.70;99.90
52034;DHT22;38045;52.988;6.536;2023-05-19T07:10:19;12.80;99.90
52034;DHT22;38045;52.988;6.536;2023-05-19T07:12:46;12.80;99.90
52034;DHT22;38045;52.988;6.536;2023-05-19T07:15:11;12.90;99.90
52034;DHT22;38045;52.988;6.536;2023-05-19T07:17:37;13.00;99.90
52034;DHT22;38045;52.988;6.536;2023-05-19T07:20:03;13.00;99.90
52034;DHT22;38045;52.988;6.536;2023-05-19T07:22:34;13.10;99.90
52034;DHT22;38045;52.988;6.536;2023-05-19T07:25:00;13.20;99.90
52034;DHT22;38045;52.988;6.536;2023-05-19T07:27:25;13.40;99.90
52034;DHT22;38045;52.988;6.536;2023-05-19T07:29:51;13.50;99.90
52034;DHT22;38045;52.988;6.536;2023-05-19T07:32:17;13.60;99.90
52034;DHT22;38045;52.988;6.536;2023-05-19T07:34:43;13.60;99.90
52034;DHT22;38045;52.988;6.536;2023-05-19T07:37:08;13.70;99.90
52034;DHT22;38045;52.988;6.536;2023-05-19T07:39:34;13.70;99.90
52034;DHT22;38045;52.988;6.536;2023-05-19T07:42:00;13.80;99.90
52034;DHT22;38045;52.988;6.536;2023-05-19T07:44:25;13.80;99.90
52034;DHT22;38045;52.988;6.536;2023-05-19T07:46:54;13.90;99.90
52034;DHT22;38045;52.988;6.536;2023-05-19T07:49:20;14.00;99.90
52034;DHT22;38045;52.988;6.536;2023-05-19T07:51:45;14.10;99.90
52034;DHT22;38045;52.988;6.536;2023-05-19T07:54:11;14.20;99.90
52034;DHT22;38045;52.988;6.536;2023-05-19T07:56:37;14.30;99.90
52034;DHT22;38045;52.988;6.536;2023-05-19T07:59:02;14.40;99.90
52034;DHT22;38045;52.988;6.536;2023-05-19T08:01:29;14.50;99.90
52034;DHT22;38045;52.988;6.536;2023-05-19T08:03:55;14.30;99.90
52034;DHT22;38045;52.988;6.536;2023-05-19T08:06:20;14.70;99.90
52034;DHT22;38045;52.988;6.536;2023-05-19T08:08:46;14.80;99.90
52034;DHT22;38045;52.988;6.536;2023-05-19T08:11:12;14.80;99.90
52034;DHT22;38045;52.988;6.536;2023-05-19T08:13:38;14.90;99.90
52034;DHT22;38045;52.988;6.536;2023-05-19T08:16:04;14.90;99.90
52034;DHT22;38045;52.988;6.536;2023-05-19T08:18:29;15.00;99.90
52034;DHT22;38045;52.988;6.536;2023-05-19T08:20:55;15.10;99.90
52034;DHT22;38045;52.988;6.536;2023-05-19T08:23:21;15.20;99.90
52034;DHT22;38045;52.988;6.536;2023-05-19T08:25:47;15.30;99.90
52034;DHT22;38045;52.988;6.536;2023-05-19T08:28:12;15.40;99.90
52034;DHT22;38045;52.988;6.536;2023-05-19T08:30:38;15.40;99.90
52034;DHT22;38045;52.988;6.536;2023-05-19T08:33:04;15.30;99.90
52034;DHT22;38045;52.988;6.536;2023-05-19T08:35:29;15.20;99.90
52034;DHT22;38045;52.988;6.536;2023-05-19T08:37:55;15.20;99.90
52034;DHT22;38045;52.988;6.536;2023-05-19T08:40:22;15.20;99.90
52034;DHT22;38045;52.988;6.536;2023-05-19T08:42:47;15.30;99.90
52034;DHT22;38045;52.988;6.536;2023-05-19T08:45:13;15.40;99.90
52034;DHT22;38045;52.988;6.536;2023-05-19T08:47:44;15.50;99.90
52034;DHT22;38045;52.988;6.536;2023-05-19T08:50:12;15.70;99.90
52034;DHT22;38045;52.988;6.536;2023-05-19T08:52:51;15.80;99.90
52034;DHT22;38045;52.988;6.536;2023-05-19T08:57:59;15.70;99.90
52034;DHT22;38045;52.988;6.536;2023-05-19T09:00:26;15.70;99.90
52034;DHT22;38045;52.988;6.536;2023-05-19T09:02:52;15.80;99.90
52034;DHT22;38045;52.988;6.536;2023-05-19T09:05:19;15.70;99.90
52034;DHT22;38045;52.988;6.536;2023-05-19T09:07:45;15.90;99.90
52034;DHT22;38045;52.988;6.536;2023-05-19T09:10:12;16.00;99.90
52034;DHT22;38045;52.988;6.536;2023-05-19T09:12:44;16.00;99.90
52034;DHT22;38045;52.988;6.536;2023-05-19T09:15:11;16.20;99.90
52034;DHT22;38045;52.988;6.536;2023-05-19T09:17:37;16.40;99.90
52034;DHT22;38045;52.988;6.536;2023-05-19T09:20:04;16.60;99.90
52034;DHT22;38045;52.988;6.536;2023-05-19T09:22:43;16.70;99.90
52034;DHT22;38045;52.988;6.536;2023-05-19T09:28:12;16.90;99.40
52034;DHT22;38045;52.988;6.536;2023-05-19T09:30:38;17.00;99.90
52034;DHT22;38045;52.988;6.536;2023-05-19T09:33:04;17.20;99.90
52034;DHT22;38045;52.988;6.536;2023-05-19T09:35:34;17.30;99.90
52034;DHT22;38045;52.988;6.536;2023-05-19T09:38:00;17.20;97.80
52034;DHT22;38045;52.988;6.536;2023-05-19T09:40:29;17.30;99.90
52034;DHT22;38045;52.988;6.536;2023-05-19T09:42:56;17.30;98.80
52034;DHT22;38045;52.988;6.536;2023-05-19T09:45:22;17.30;98.30
52034;DHT22;38045;52.988;6.536;2023-05-19T09:47:47;17.30;97.70
52034;DHT22;38045;52.988;6.536;2023-05-19T09:50:13;17.30;98.10
52034;DHT22;38045;52.988;6.536;2023-05-19T09:52:42;17.10;95.60
52034;DHT22;38045;52.988;6.536;2023-05-19T09:55:11;17.00;97.70
52034;DHT22;38045;52.988;6.536;2023-05-19T09:57:37;17.00;96.30
52034;DHT22;38045;52.988;6.536;2023-05-19T10:00:09;17.00;96.60
52034;DHT22;38045;52.988;6.536;2023-05-19T10:02:43;17.00;96.90
52034;DHT22;38045;52.988;6.536;2023-05-19T10:05:14;16.80;97.60
52034;DHT22;38045;52.988;6.536;2023-05-19T10:07:49;16.90;97.40
52034;DHT22;38045;52.988;6.536;2023-05-19T10:10:16;16.90;96.60
52034;DHT22;38045;52.988;6.536;2023-05-19T10:12:44;17.20;97.50
52034;DHT22;38045;52.988;6.536;2023-05-19T10:15:12;17.40;96.70
52034;DHT22;38045;52.988;6.536;2023-05-19T10:17:39;17.70;95.10
52034;DHT22;38045;52.988;6.536;2023-05-19T10:20:15;17.70;95.00
52034;DHT22;38045;52.988;6.536;2023-05-19T10:22:44;17.70;92.60
52034;DHT22;38045;52.988;6.536;2023-05-19T10:25:10;17.70;95.50
52034;DHT22;38045;52.988;6.536;2023-05-19T10:27:41;17.90;95.00
52034;DHT22;38045;52.988;6.536;2023-05-19T10:30:19;18.00;95.30
52034;DHT22;38045;52.988;6.536;2023-05-19T10:32:46;18.20;94.10
52034;DHT22;38045;52.988;6.536;2023-05-19T10:43:43;18.50;94.30
52034;DHT22;38045;52.988;6.536;2023-05-19T10:46:10;18.10;94.20
52034;DHT22;38045;52.988;6.536;2023-05-19T10:48:35;18.30;93.20
52034;DHT22;38045;52.988;6.536;2023-05-19T10:51:01;18.40;94.30
52034;DHT22;38045;52.988;6.536;2023-05-19T10:53:33;18.50;93.50
52034;DHT22;38045;52.988;6.536;2023-05-19T10:56:01;18.60;93.20
52034;DHT22;38045;52.988;6.536;2023-05-19T10:58:57;18.70;93.20
52034;DHT22;38045;52.988;6.536;2023-05-19T11:01:32;18.80;92.80
52034;DHT22;38045;52.988;6.536;2023-05-19T11:04:07;18.70;91.70
52034;DHT22;38045;52.988;6.536;2023-05-19T11:06:38;18.90;92.60
52034;DHT22;38045;52.988;6.536;2023-05-19T11:09:14;19.00;92.50
52034;DHT22;38045;52.988;6.536;2023-05-19T11:11:46;19.10;92.80
52034;DHT22;38045;52.988;6.536;2023-05-19T11:14:14;19.00;92.70
52034;DHT22;38045;52.988;6.536;2023-05-19T11:16:41;19.00;92.50
52034;DHT22;38045;52.988;6.536;2023-05-19T11:19:08;19.00;92.70
52034;DHT22;38045;52.988;6.536;2023-05-19T11:21:49;19.10;92.60
52034;DHT22;38045;52.988;6.536;2023-05-19T11:26:58;19.20;92.50
52034;DHT22;38045;52.988;6.536;2023-05-19T11:29:24;19.30;92.50
52034;DHT22;38045;52.988;6.536;2023-05-19T11:31:50;19.00;91.30
52034;DHT22;38045;52.988;6.536;2023-05-19T11:34:16;19.10;92.80
52034;DHT22;38045;52.988;6.536;2023-05-19T11:36:43;19.20;92.30
52034;DHT22;38045;52.988;6.536;2023-05-19T11:39:10;19.10;91.90
52034;DHT22;38045;52.988;6.536;2023-05-19T11:41:39;19.30;92.60
52034;DHT22;38045;52.988;6.536;2023-05-19T11:44:09;19.50;92.50
52034;DHT22;38045;52.988;6.536;2023-05-19T11:46:36;19.70;92.40
52034;DHT22;38045;52.988;6.536;2023-05-19T11:49:03;19.80;92.00
52034;DHT22;38045;52.988;6.536;2023-05-19T11:51:29;19.80;92.50
52034;DHT22;38045;52.988;6.536;2023-05-19T11:53:56;19.90;92.60
52034;DHT22;38045;52.988;6.536;2023-05-19T11:56:22;20.10;92.00
52034;DHT22;38045;52.988;6.536;2023-05-19T11:58:48;20.00;91.80
52034;DHT22;38045;52.988;6.536;2023-05-19T12:01:13;19.90;91.10
52034;DHT22;38045;52.988;6.536;2023-05-19T12:03:39;19.70;91.40
52034;DHT22;38045;52.988;6.536;2023-05-19T12:06:05;19.60;91.80
52034;DHT22;38045;52.988;6.536;2023-05-19T12:08:33;19.50;91.90
52034;DHT22;38045;52.988;6.536;2023-05-19T12:10:59;19.40;92.00
52034;DHT22;38045;52.988;6.536;2023-05-19T12:13:24;19.30;92.00
52034;DHT22;38045;52.988;6.536;2023-05-19T12:15:50;19.20;91.90
52034;DHT22;38045;52.988;6.536;2023-05-19T12:18:18;19.20;91.90
52034;DHT22;38045;52.988;6.536;2023-05-19T12:20:43;19.30;92.40
52034;DHT22;38045;52.988;6.536;2023-05-19T12:23:11;19.50;92.10
52034;DHT22;38045;52.988;6.536;2023-05-19T12:25:37;19.70;92.50
52034;DHT22;38045;52.988;6.536;2023-05-19T12:28:02;19.70;91.30
52034;DHT22;38045;52.988;6.536;2023-05-19T12:30:29;19.90;92.40
52034;DHT22;38045;52.988;6.536;2023-05-19T12:32:56;19.80;91.90
52034;DHT22;38045;52.988;6.536;2023-05-19T12:35:25;19.90;92.50
52034;DHT22;38045;52.988;6.536;2023-05-19T12:37:51;20.00;92.10
52034;DHT22;38045;52.988;6.536;2023-05-19T12:40:16;20.00;92.20
52034;DHT22;38045;52.988;6.536;2023-05-19T12:42:46;20.20;92.50
52034;DHT22;38045;52.988;6.536;2023-05-19T12:45:12;20.20;91.20
52034;DHT22;38045;52.988;6.536;2023-05-19T12:47:38;20.10;90.40
52034;DHT22;38045;52.988;6.536;2023-05-19T12:50:08;19.90;90.80
52034;DHT22;38045;52.988;6.536;2023-05-19T12:52:43;19.70;90.50
52034;DHT22;38045;52.988;6.536;2023-05-19T12:55:09;19.70;91.20
52034;DHT22;38045;52.988;6.536;2023-05-19T12:57:37;19.70;91.60
52034;DHT22;38045;52.988;6.536;2023-05-19T13:00:25;19.80;91.80
52034;DHT22;38045;52.988;6.536;2023-05-19T13:05:22;19.90;91.40
52034;DHT22;38045;52.988;6.536;2023-05-19T13:07:55;19.90;91.30
52034;DHT22;38045;52.988;6.536;2023-05-19T13:10:22;19.90;91.30
52034;DHT22;38045;52.988;6.536;2023-05-19T13:12:48;19.90;91.00
52034;DHT22;38045;52.988;6.536;2023-05-19T13:15:13;19.70;90.70
52034;DHT22;38045;52.988;6.536;2023-05-19T13:17:39;19.80;91.20
52034;DHT22;38045;52.988;6.536;2023-05-19T13:20:05;19.90;91.50
52034;DHT22;38045;52.988;6.536;2023-05-19T13:22:31;20.20;90.80
52034;DHT22;38045;52.988;6.536;2023-05-19T13:24:59;20.40;91.20
52034;DHT22;38045;52.988;6.536;2023-05-19T13:27:26;20.70;92.00
52034;DHT22;38045;52.988;6.536;2023-05-19T13:29:52;20.70;90.00
52034;DHT22;38045;52.988;6.536;2023-05-19T13:32:17;20.30;91.00
52034;DHT22;38045;52.988;6.536;2023-05-19T13:34:43;20.20;91.00
52034;DHT22;38045;52.988;6.536;2023-05-19T13:37:08;20.20;90.90
52034;DHT22;38045;52.988;6.536;2023-05-19T13:39:36;20.40;91.50
52034;DHT22;38045;52.988;6.536;2023-05-19T13:42:01;20.60;91.70
52034;DHT22;38045;52.988;6.536;2023-05-19T13:44:27;20.60;91.30
52034;DHT22;38045;52.988;6.536;2023-05-19T13:46:53;20.40;91.40
52034;DHT22;38045;52.988;6.536;2023-05-19T13:49:18;20.30;90.70
52034;DHT22;38045;52.988;6.536;2023-05-19T13:51:44;20.10;91.10
52034;DHT22;38045;52.988;6.536;2023-05-19T13:54:09;20.10;91.20
52034;DHT22;38045;52.988;6.536;2023-05-19T13:56:35;20.20;91.30
52034;DHT22;38045;52.988;6.536;2023-05-19T13:59:01;20.30;90.60
52034;DHT22;38045;52.988;6.536;2023-05-19T14:01:28;20.30;90.50
52034;DHT22;38045;52.988;6.536;2023-05-19T14:03:54;20.00;90.90
52034;DHT22;38045;52.988;6.536;2023-05-19T14:06:19;19.70;91.10
52034;DHT22;38045;52.988;6.536;2023-05-19T14:08:45;19.60;91.30
52034;DHT22;38045;52.988;6.536;2023-05-19T14:11:18;19.50;90.90
52034;DHT22;38045;52.988;6.536;2023-05-19T14:13:44;19.50;90.90
52034;DHT22;38045;52.988;6.536;2023-05-19T14:16:10;19.60;91.00
52034;DHT22;38045;52.988;6.536;2023-05-19T14:18:36;19.70;91.20
52034;DHT22;38045;52.988;6.536;2023-05-19T14:21:01;19.80;90.80
52034;DHT22;38045;52.988;6.536;2023-05-19T14:23:27;20.00;91.20
52034;DHT22;38045;52.988;6.536;2023-05-19T14:25:54;20.00;90.60
52034;DHT22;38045;52.988;6.536;2023-05-19T14:28:20;19.80;91.00
52034;DHT22;38045;52.988;6.536;2023-05-19T14:30:46;19.80;91.40
52034;DHT22;38045;52.988;6.536;2023-05-19T14:33:12;19.60;91.20
52034;DHT22;38045;52.988;6.536;2023-05-19T14:35:37;19.70;90.80
52034;DHT22;38045;52.988;6.536;2023-05-19T14:38:03;19.70;91.10
52034;DHT22;38045;52.988;6.536;2023-05-19T14:40:29;19.70;91.40
52034;DHT22;38045;52.988;6.536;2023-05-19T14:42:54;19.80;91.00
52034;DHT22;38045;52.988;6.536;2023-05-19T14:45:20;19.80;91.50
52034;DHT22;38045;52.988;6.536;2023-05-19T14:47:46;19.90;91.30
52034;DHT22;38045;52.988;6.536;2023-05-19T14:50:11;19.90;91.50
52034;DHT22;38045;52.988;6.536;2023-05-19T14:52:37;19.90;90.70
52034;DHT22;38045;52.988;6.536;2023-05-19T14:55:03;19.70;90.90
52034;DHT22;38045;52.988;6.536;2023-05-19T14:57:28;19.60;91.40
52034;DHT22;38045;52.988;6.536;2023-05-19T14:59:54;19.70;91.40
52034;DHT22;38045;52.988;6.536;2023-05-19T15:02:19;19.80;91.00
52034;DHT22;38045;52.988;6.536;2023-05-19T15:04:45;19.90;90.70
52034;DHT22;38045;52.988;6.536;2023-05-19T15:07:11;20.00;90.90
52034;DHT22;38045;52.988;6.536;2023-05-19T15:09:36;20.10;91.10
52034;DHT22;38045;52.988;6.536;2023-05-19T15:12:02;20.10;90.80
52034;DHT22;38045;52.988;6.536;2023-05-19T15:14:28;20.00;91.10
52034;DHT22;38045;52.988;6.536;2023-05-19T15:16:53;19.80;91.20
52034;DHT22;38045;52.988;6.536;2023-05-19T15:19:19;19.60;90.90
52034;DHT22;38045;52.988;6.536;2023-05-19T15:21:45;19.40;91.50
52034;DHT22;38045;52.988;6.536;2023-05-19T15:24:13;19.20;91.40
52034;DHT22;38045;52.988;6.536;2023-05-19T15:26:38;19.30;92.00
52034;DHT22;38045;52.988;6.536;2023-05-19T15:29:04;19.50;91.90
52034;DHT22;38045;52.988;6.536;2023-05-19T15:31:30;19.60;91.50
52034;DHT22;38045;52.988;6.536;2023-05-19T15:33:55;19.50;91.70
52034;DHT22;38045;52.988;6.536;2023-05-19T15:36:21;19.60;91.80
52034;DHT22;38045;52.988;6.536;2023-05-19T15:38:46;19.80;91.30
52034;DHT22;38045;52.988;6.536;2023-05-19T15:41:12;19.80;91.10
52034;DHT22;38045;52.988;6.536;2023-05-19T15:43:37;19.90;90.80
52034;DHT22;38045;52.988;6.536;2023-05-19T15:46:04;20.00;90.90
52034;DHT22;38045;52.988;6.536;2023-05-19T15:48:29;20.10;91.40
52034;DHT22;38045;52.988;6.536;2023-05-19T15:50:59;20.00;91.20
52034;DHT22;38045;52.988;6.536;2023-05-19T15:53:25;19.80;90.40
52034;DHT22;38045;52.988;6.536;2023-05-19T15:55:51;19.80;90.60
52034;DHT22;38045;52.988;6.536;2023-05-19T15:58:16;19.80;90.50
52034;DHT22;38045;52.988;6.536;2023-05-19T16:00:42;20.00;91.20
52034;DHT22;38045;52.988;6.536;2023-05-19T16:03:08;20.20;90.80
52034;DHT22;38045;52.988;6.536;2023-05-19T16:05:33;20.40;90.50